sensor_id;sensor_type;location;lat;lon;timestamp;pressure;altitude;pressure_sealevel;temperature;humidity
30682;BME280;17439;48.092;11.842;2023-03-31T00:01:40;95048.59;;;10.31;70.36
30682;BME280;17439;48.092;11.842;2023-03-31T00:04:08;95055.44;;;10.29;70.07
30682;BME280;17439;48.092;11.842;2023-03-31T00:06:37;95051.78;;;10.25;70.02
30682;BME280;17439;48.092;11.842;2023-03-31T00:09:06;95045.88;;;10.23;70.28
30682;BME280;17439;48.092;11.842;2023-03-31T00:11:35;95040.00;;;10.21;70.62
30682;BME280;17439;48.092;11.842;2023-03-31T00:14:03;95035.19;;;10.17;70.64
30682;BME280;17439;48.092;11.842;2023-03-31T00:16:29;95039.03;;;10.16;70.81
30682;BME280;17439;48.092;11.842;2023-03-31T00:18:56;95021.97;;;10.16;70.85
30682;BME280;17439;48.092;11.842;2023-03-31T00:21:23;95011.13;;;10.16;71.12
30682;BME280;17439;48.092;11.842;2023-03-31T00:24:06;95014.16;;;10.14;70.39
30682;BME280;17439;48.092;11.842;2023-03-31T00:26:35;95002.22;;;10.15;71.91
30682;BME280;17439;48.092;11.842;2023-03-31T00:29:04;94998.41;;;10.16;71.79
30682;BME280;17439;48.092;11.842;2023-03-31T00:31:32;95004.31;;;10.19;72.47
30682;BME280;17439;48.092;11.842;2023-03-31T00:33:59;94992.31;;;10.20;72.55
30682;BME280;17439;48.092;11.842;2023-03-31T00:36:26;94992.81;;;10.22;72.66
30682;BME280;17439;48.092;11.842;2023-03-31T00:38:55;94992.19;;;10.25;72.50
30682;BME280;17439;48.092;11.842;2023-03-31T00:41:21;94980.22;;;10.26;72.57
30682;BME280;17439;48.092;11.842;2023-03-31T00:51:51;94961.28;;;10.34;71.95
30682;BME280;17439;48.092;11.842;2023-03-31T00:54:20;94956.34;;;10.37;72.49
30682;BME280;17439;48.092;11.842;2023-03-31T00:56:49;94954.09;;;10.39;72.45
30682;BME280;17439;48.092;11.842;2023-03-31T00:59:17;94953.00;;;10.40;72.78
30682;BME280;17439;48.092;11.842;2023-03-31T01:01:45;94946.94;;;10.43;72.29
30682;BME280;17439;48.092;11.842;2023-03-31T01:04:14;94934.66;;;10.45;72.84
30682;BME280;17439;48.092;11.842;2023-03-31T01:06:53;94933.53;;;10.46;70.91
30682;BME280;17439;48.092;11.842;2023-03-31T01:09:23;94927.47;;;10.49;72.90
30682;BME280;17439;48.092;11.842;2023-03-31T01:11:50;94930.34;;;10.53;72.98
30682;BME280;17439;48.092;11.842;2023-03-31T01:14:17;94919.66;;;10.57;73.16
30682;BME280;17439;48.092;11.842;2023-03-31T01:16:44;94917.41;;;10.59;73.23
30682;BME280;17439;48.092;11.842;2023-03-31T01:19:20;94922.16;;;10.62;71.26
30682;BME280;17439;48.092;11.842;2023-03-31T01:22:16;94916.09;;;10.65;70.77
30682;BME280;17439;48.092;11.842;2023-03-31T01:24:54;94910.03;;;10.68;73.44
30682;BME280;17439;48.092;11.842;2023-03-31T01:27:47;94914.81;;;10.71;70.67
30682;BME280;17439;48.092;11.842;2023-03-31T01:30:33;94907.59;;;10.75;72.18
30682;BME280;17439;48.092;11.842;2023-03-31T01:36:13;94906.97;;;10.78;70.23
30682;BME280;17439;48.092;11.842;2023-03-31T01:39:02;94901.69;;;10.82;70.52
30682;BME280;17439;48.092;11.842;2023-03-31T01:41:47;94893.25;;;10.83;70.41
30682;BME280;17439;48.092;11.842;2023-03-31T01:46:53;94873.94;;;10.85;69.92
30682;BME280;17439;48.092;11.842;2023-03-31T01:49:41;94877.75;;;10.84;69.39
30682;BME280;17439;48.092;11.842;2023-03-31T01:52:35;94873.78;;;10.81;69.24
30682;BME280;17439;48.092;11.842;2023-03-31T01:55:10;94870.59;;;10.79;69.73
30682;BME280;17439;48.092;11.842;2023-03-31T01:57:51;94880.16;;;10.77;68.74
30682;BME280;17439;48.092;11.842;2023-03-31T02:00:27;94877.00;;;10.75;69.56
30682;BME280;17439;48.092;11.842;2023-03-31T02:02:58;94874.28;;;10.75;70.82
30682;BME280;17439;48.092;11.842;2023-03-31T02:05:37;94872.69;;;10.74;69.82
30682;BME280;17439;48.092;11.842;2023-03-31T02:08:13;94872.34;;;10.75;71.35
30682;BME280;17439;48.092;11.842;2023-03-31T02:10:43;94865.03;;;10.76;71.54
30682;BME280;17439;48.092;11.842;2023-03-31T02:13:12;94849.56;;;10.76;71.32
30682;BME280;17439;48.092;11.842;2023-03-31T02:15:43;94842.06;;;10.73;70.76
30682;BME280;17439;48.092;11.842;2023-03-31T02:18:15;94836.97;;;10.71;70.93
30682;BME280;17439;48.092;11.842;2023-03-31T02:20:46;94839.22;;;10.69;71.12
30682;BME280;17439;48.092;11.842;2023-03-31T02:23:16;94828.38;;;10.69;71.62
30682;BME280;17439;48.092;11.842;2023-03-31T02:25:50;94826.00;;;10.68;70.83
30682;BME280;17439;48.092;11.842;2023-03-31T02:28:21;94815.16;;;10.68;71.30
30682;BME280;17439;48.092;11.842;2023-03-31T02:33:40;94811.16;;;10.65;72.15
30682;BME280;17439;48.092;11.842;2023-03-31T02:36:07;94815.03;;;10.64;71.96
30682;BME280;17439;48.092;11.842;2023-03-31T02:38:42;94821.88;;;10.62;71.27
30682;BME280;17439;48.092;11.842;2023-03-31T02:41:11;94808.78;;;10.64;72.50
30682;BME280;17439;48.092;11.842;2023-03-31T02:43:37;94821.22;;;10.65;72.51
30682;BME280;17439;48.092;11.842;2023-03-31T02:46:04;94812.00;;;10.66;72.65
30682;BME280;17439;48.092;11.842;2023-03-31T02:48:34;94812.00;;;10.66;71.83
30682;BME280;17439;48.092;11.842;2023-03-31T02:51:19;94801.16;;;10.66;70.36
30682;BME280;17439;48.092;11.842;2023-03-31T02:54:07;94809.72;;;10.68;70.86
30682;BME280;17439;48.092;11.842;2023-03-31T03:02:50;94805.09;;;10.68;67.64
30682;BME280;17439;48.092;11.842;2023-03-31T03:11:37;94817.47;;;10.78;71.38
30682;BME280;17439;48.092;11.842;2023-03-31T03:14:14;94806.47;;;10.83;70.82
30682;BME280;17439;48.092;11.842;2023-03-31T03:16:46;94804.34;;;10.89;71.60
30682;BME280;17439;48.092;11.842;2023-03-31T03:19:22;94803.03;;;10.95;70.57
30682;BME280;17439;48.092;11.842;2023-03-31T03:21:49;94795.66;;;11.04;72.92
30682;BME280;17439;48.092;11.842;2023-03-31T03:24:17;94782.66;;;11.10;72.81
30682;BME280;17439;48.092;11.842;2023-03-31T03:26:44;94782.00;;;11.13;72.63
30682;BME280;17439;48.092;11.842;2023-03-31T03:29:11;94787.91;;;11.15;72.24
30682;BME280;17439;48.092;11.842;2023-03-31T03:31:38;94784.56;;;11.18;72.47
30682;BME280;17439;48.092;11.842;2023-03-31T03:34:05;94790.88;;;11.22;72.34
30682;BME280;17439;48.092;11.842;2023-03-31T03:36:31;94796.75;;;11.24;72.45
30682;BME280;17439;48.092;11.842;2023-03-31T03:38:58;94792.59;;;11.27;72.49
30682;BME280;17439;48.092;11.842;2023-03-31T03:41:25;94796.09;;;11.28;72.27
30682;BME280;17439;48.092;11.842;2023-03-31T03:43:51;94802.03;;;11.30;72.22
30682;BME280;17439;48.092;11.842;2023-03-31T03:46:18;94803.59;;;11.31;72.27
30682;BME280;17439;48.092;11.842;2023-03-31T03:48:44;94814.44;;;11.31;72.01
30682;BME280;17439;48.092;11.842;2023-03-31T03:51:11;94823.41;;;11.31;71.78
30682;BME280;17439;48.092;11.842;2023-03-31T03:53:38;94825.28;;;11.31;71.79
30682;BME280;17439;48.092;11.842;2023-03-31T03:56:05;94816.69;;;11.29;71.81
30682;BME280;17439;48.092;11.842;2023-03-31T03:58:32;94831.38;;;11.28;71.58
30682;BME280;17439;48.092;11.842;2023-03-31T04:00:58;94820.41;;;11.24;71.50
30682;BME280;17439;48.092;11.842;2023-03-31T04:03:25;94819.94;;;11.22;71.41
30682;BME280;17439;48.092;11.842;2023-03-31T04:05:52;94820.28;;;11.20;71.45
30682;BME280;17439;48.092;11.842;2023-03-31T04:08:19;94812.47;;;11.19;71.79
30682;BME280;17439;48.092;11.842;2023-03-31T04:10:46;94811.19;;;11.16;71.84
30682;BME280;17439;48.092;11.842;2023-03-31T04:13:14;94808.03;;;11.14;71.88
30682;BME280;17439;48.092;11.842;2023-03-31T04:15:41;94792.41;;;11.11;71.80
30682;BME280;17439;48.092;11.842;2023-03-31T04:18:09;94782.53;;;11.06;71.84
30682;BME280;17439;48.092;11.842;2023-03-31T04:20:36;94765.47;;;11.06;72.18
30682;BME280;17439;48.092;11.842;2023-03-31T04:23:03;94753.50;;;11.07;72.37
30682;BME280;17439;48.092;11.842;2023-03-31T04:25:31;94750.78;;;11.07;72.55
30682;BME280;17439;48.092;11.842;2023-03-31T04:27:57;94745.03;;;11.08;72.60
30682;BME280;17439;48.092;11.842;2023-03-31T04:30:25;94731.47;;;11.08;72.67
30682;BME280;17439;48.092;11.842;2023-03-31T04:32:58;94723.31;;;11.08;72.22
30682;BME280;17439;48.092;11.842;2023-03-31T04:35:27;94721.44;;;11.09;72.78
30682;BME280;17439;48.092;11.842;2023-03-31T04:37:54;94716.44;;;11.11;72.86
30682;BME280;17439;48.092;11.842;2023-03-31T04:40:20;94704.50;;;11.12;72.83
30682;BME280;17439;48.092;11.842;2023-03-31T04:42:47;94703.34;;;11.13;72.72
30682;BME280;17439;48.092;11.842;2023-03-31T04:45:14;94704.50;;;11.12;72.83
30682;BME280;17439;48.092;11.842;2023-03-31T04:47:40;94695.19;;;11.13;72.95
30682;BME280;17439;48.092;11.842;2023-03-31T04:50:07;94694.09;;;11.14;72.95
30682;BME280;17439;48.092;11.842;2023-03-31T04:52:39;94686.72;;;11.15;72.83
30682;BME280;17439;48.092;11.842;2023-03-31T04:55:06;94686.72;;;11.15;73.17
30682;BME280;17439;48.092;11.842;2023-03-31T04:57:33;94679.41;;;11.15;73.33
30682;BME280;17439;48.092;11.842;2023-03-31T05:00:00;94682.91;;;11.16;73.43
30682;BME280;17439;48.092;11.842;2023-03-31T05:02:26;94689.13;;;11.16;73.50
30682;BME280;17439;48.092;11.842;2023-03-31T05:04:53;94684.50;;;11.17;73.68
30682;BME280;17439;48.092;11.842;2023-03-31T05:07:20;94682.25;;;11.19;73.71
30682;BME280;17439;48.092;11.842;2023-03-31T05:09:47;94672.16;;;11.19;73.54
30682;BME280;17439;48.092;11.842;2023-03-31T05:12:16;94670.72;;;11.22;73.15
30682;BME280;17439;48.092;11.842;2023-03-31T05:14:43;94645.16;;;11.23;73.00
30682;BME280;17439;48.092;11.842;2023-03-31T05:17:10;94616.47;;;11.22;73.06
30682;BME280;17439;48.092;11.842;2023-03-31T05:19:36;94606.41;;;11.22;72.85
30682;BME280;17439;48.092;11.842;2023-03-31T05:22:03;94592.38;;;11.20;72.96
30682;BME280;17439;48.092;11.842;2023-03-31T05:24:30;94593.16;;;11.21;73.22
30682;BME280;17439;48.092;11.842;2023-03-31T05:26:56;94579.59;;;11.21;73.37
30682;BME280;17439;48.092;11.842;2023-03-31T05:29:23;94561.41;;;11.21;73.31
30682;BME280;17439;48.092;11.842;2023-03-31T05:31:50;94556.78;;;11.22;73.07
30682;BME280;17439;48.092;11.842;2023-03-31T05:34:17;94553.63;;;11.20;73.00
30682;BME280;17439;48.092;11.842;2023-03-31T05:36:43;94546.59;;;11.19;73.22
30682;BME280;17439;48.092;11.842;2023-03-31T05:39:10;94538.78;;;11.17;73.17
30682;BME280;17439;48.092;11.842;2023-03-31T05:41:37;94531.00;;;11.16;73.24
30682;BME280;17439;48.092;11.842;2023-03-31T05:44:03;94524.31;;;11.13;73.23
30682;BME280;17439;48.092;11.842;2023-03-31T05:46:30;94505.31;;;11.13;73.31
30682;BME280;17439;48.092;11.842;2023-03-31T05:48:57;94506.47;;;11.12;73.46
30682;BME280;17439;48.092;11.842;2023-03-31T05:51:24;94502.16;;;11.11;73.55
30682;BME280;17439;48.092;11.842;2023-03-31T05:53:50;94497.84;;;11.10;73.75
30682;BME280;17439;48.092;11.842;2023-03-31T05:56:17;94487.00;;;11.10;73.78
30682;BME280;17439;48.092;11.842;2023-03-31T05:58:44;94481.59;;;11.10;73.95
30682;BME280;17439;48.092;11.842;2023-03-31T06:01:13;94486.22;;;11.10;73.86
30682;BME280;17439;48.092;11.842;2023-03-31T06:03:43;94479.34;;;11.12;74.57
30682;BME280;17439;48.092;11.842;2023-03-31T06:06:10;94469.38;;;11.16;75.14
30682;BME280;17439;48.092;11.842;2023-03-31T06:08:37;94469.53;;;11.20;75.31
30682;BME280;17439;48.092;11.842;2023-03-31T06:11:06;94447.94;;;11.23;75.54
30682;BME280;17439;48.092;11.842;2023-03-31T06:13:34;94439.56;;;11.29;75.65
30682;BME280;17439;48.092;11.842;2023-03-31T06:16:02;94442.38;;;11.32;75.52
30682;BME280;17439;48.092;11.842;2023-03-31T06:18:30;94447.22;;;11.39;75.75
30682;BME280;17439;48.092;11.842;2023-03-31T06:20:57;94436.59;;;11.46;75.71
30682;BME280;17439;48.092;11.842;2023-03-31T06:23:24;94429.38;;;11.50;75.57
30682;BME280;17439;48.092;11.842;2023-03-31T06:25:52;94439.22;;;11.55;75.86
30682;BME280;17439;48.092;11.842;2023-03-31T06:28:20;94421.19;;;11.62;76.17
30682;BME280;17439;48.092;11.842;2023-03-31T06:30:47;94406.25;;;11.69;75.71
30682;BME280;17439;48.092;11.842;2023-03-31T06:33:13;94403.28;;;11.74;75.28
30682;BME280;17439;48.092;11.842;2023-03-31T06:35:40;94399.19;;;11.80;75.43
30682;BME280;17439;48.092;11.842;2023-03-31T06:38:07;94389.59;;;11.83;74.88
30682;BME280;17439;48.092;11.842;2023-03-31T06:40:34;94387.31;;;11.85;74.48
30682;BME280;17439;48.092;11.842;2023-03-31T06:43:01;94369.56;;;11.87;74.31
30682;BME280;17439;48.092;11.842;2023-03-31T06:45:27;94362.28;;;11.91;74.52
30682;BME280;17439;48.092;11.842;2023-03-31T06:47:54;94365.91;;;11.95;74.49
30682;BME280;17439;48.092;11.842;2023-03-31T06:50:21;94368.38;;;12.01;74.66
30682;BME280;17439;48.092;11.842;2023-03-31T06:52:48;94353.34;;;12.03;74.54
30682;BME280;17439;48.092;11.842;2023-03-31T06:55:17;94357.72;;;12.08;74.71
30682;BME280;17439;48.092;11.842;2023-03-31T06:57:43;94356.69;;;12.12;74.90
30682;BME280;17439;48.092;11.842;2023-03-31T07:00:11;94346.34;;;12.18;74.95
30682;BME280;17439;48.092;11.842;2023-03-31T07:02:37;94333.66;;;12.22;74.96
30682;BME280;17439;48.092;11.842;2023-03-31T07:05:05;94328.50;;;12.33;74.49
30682;BME280;17439;48.092;11.842;2023-03-31T07:07:32;94332.09;;;12.37;74.42
30682;BME280;17439;48.092;11.842;2023-03-31T07:09:59;94337.59;;;12.41;74.00
30682;BME280;17439;48.092;11.842;2023-03-31T07:12:26;94343.84;;;12.41;72.80
30682;BME280;17439;48.092;11.842;2023-03-31T07:14:53;94344.38;;;12.47;73.61
30682;BME280;17439;48.092;11.842;2023-03-31T07:17:19;94358.84;;;12.51;73.30
30682;BME280;17439;48.092;11.842;2023-03-31T07:19:46;94390.69;;;12.50;72.02
30682;BME280;17439;48.092;11.842;2023-03-31T07:22:13;94418.66;;;12.51;71.75
30682;BME280;17439;48.092;11.842;2023-03-31T07:24:40;94445.84;;;12.51;72.21
30682;BME280;17439;48.092;11.842;2023-03-31T07:27:07;94465.91;;;12.46;71.41
30682;BME280;17439;48.092;11.842;2023-03-31T07:29:33;94473.72;;;12.48;71.73
30682;BME280;17439;48.092;11.842;2023-03-31T07:32:00;94445.75;;;12.47;71.59
30682;BME280;17439;48.092;11.842;2023-03-31T07:34:27;94479.06;;;12.44;71.26
30682;BME280;17439;48.092;11.842;2023-03-31T07:36:54;94500.00;;;12.44;70.79
30682;BME280;17439;48.092;11.842;2023-03-31T07:39:21;94470.25;;;12.35;70.77
30682;BME280;17439;48.092;11.842;2023-03-31T07:41:48;94469.69;;;12.29;70.92
30682;BME280;17439;48.092;11.842;2023-03-31T07:44:15;94476.88;;;12.22;71.40
30682;BME280;17439;48.092;11.842;2023-03-31T07:46:41;94493.06;;;12.18;71.54
30682;BME280;17439;48.092;11.842;2023-03-31T07:49:08;94484.03;;;12.14;71.64
30682;BME280;17439;48.092;11.842;2023-03-31T07:51:35;94474.19;;;12.09;72.12
30682;BME280;17439;48.092;11.842;2023-03-31T07:54:02;94453.16;;;12.06;72.56
30682;BME280;17439;48.092;11.842;2023-03-31T07:56:28;94446.94;;;12.06;72.90
30682;BME280;17439;48.092;11.842;2023-03-31T07:58:55;94441.03;;;12.04;72.87
30682;BME280;17439;48.092;11.842;2023-03-31T08:01:23;94419.31;;;12.04;73.12
30682;BME280;17439;48.092;11.842;2023-03-31T08:03:50;94427.47;;;12.04;73.33
30682;BME280;17439;48.092;11.842;2023-03-31T08:06:18;94423.63;;;12.05;73.54
30682;BME280;17439;48.092;11.842;2023-03-31T08:08:46;94392.59;;;12.06;73.94
30682;BME280;17439;48.092;11.842;2023-03-31T08:11:13;94401.97;;;12.08;74.10
30682;BME280;17439;48.092;11.842;2023-03-31T08:13:40;94385.78;;;12.12;74.54
30682;BME280;17439;48.092;11.842;2023-03-31T08:16:06;94374.66;;;12.17;75.06
30682;BME280;17439;48.092;11.842;2023-03-31T08:18:34;94367.38;;;12.21;75.67
30682;BME280;17439;48.092;11.842;2023-03-31T08:21:00;94347.06;;;12.31;76.31
30682;BME280;17439;48.092;11.842;2023-03-31T08:23:27;94344.97;;;12.40;76.84
30682;BME280;17439;48.092;11.842;2023-03-31T08:25:54;94344.81;;;12.49;76.57
30682;BME280;17439;48.092;11.842;2023-03-31T08:28:20;94341.16;;;12.57;76.15
30682;BME280;17439;48.092;11.842;2023-03-31T08:30:47;94343.59;;;12.62;75.32
30682;BME280;17439;48.092;11.842;2023-03-31T08:33:14;94352.28;;;12.68;75.05
30682;BME280;17439;48.092;11.842;2023-03-31T08:35:40;94340.00;;;12.74;74.85
30682;BME280;17439;48.092;11.842;2023-03-31T08:38:07;94333.06;;;12.77;74.71
30682;BME280;17439;48.092;11.842;2023-03-31T08:40:34;94326.94;;;12.80;74.64
30682;BME280;17439;48.092;11.842;2023-03-31T08:43:12;94336.22;;;12.79;71.61
30682;BME280;17439;48.092;11.842;2023-03-31T08:45:42;94349.47;;;12.80;73.95
30682;BME280;17439;48.092;11.842;2023-03-31T08:50:45;94340.94;;;12.82;72.85
30682;BME280;17439;48.092;11.842;2023-03-31T08:53:24;94347.19;;;12.82;72.10
30682;BME280;17439;48.092;11.842;2023-03-31T08:55:53;94340.59;;;12.83;73.48
30682;BME280;17439;48.092;11.842;2023-03-31T08:58:35;94361.16;;;12.81;70.86
30682;BME280;17439;48.092;11.842;2023-03-31T09:03:53;94367.56;;;12.73;70.87
30682;BME280;17439;48.092;11.842;2023-03-31T09:09:28;94425.38;;;12.69;71.58
30682;BME280;17439;48.092;11.842;2023-03-31T09:12:09;94446.66;;;12.67;71.27
30682;BME280;17439;48.092;11.842;2023-03-31T09:14:47;94449.63;;;12.62;70.01
30682;BME280;17439;48.092;11.842;2023-03-31T09:17:26;94443.75;;;12.60;70.92
30682;BME280;17439;48.092;11.842;2023-03-31T09:19:55;94425.44;;;12.57;71.99
30682;BME280;17439;48.092;11.842;2023-03-31T09:22:31;94417.19;;;12.54;68.66
30682;BME280;17439;48.092;11.842;2023-03-31T09:25:09;94406.66;;;12.52;70.81
30682;BME280;17439;48.092;11.842;2023-03-31T09:27:39;94382.97;;;12.52;72.44
30682;BME280;17439;48.092;11.842;2023-03-31T09:32:37;94382.34;;;12.59;74.12
30682;BME280;17439;48.092;11.842;2023-03-31T09:35:25;94387.53;;;12.64;72.53
30682;BME280;17439;48.092;11.842;2023-03-31T09:37:52;94382.72;;;12.74;75.03
30682;BME280;17439;48.092;11.842;2023-03-31T09:40:22;94367.56;;;12.73;70.36
30682;BME280;17439;48.092;11.842;2023-03-31T09:43:26;94365.09;;;12.83;70.40
30682;BME280;17439;48.092;11.842;2023-03-31T09:45:54;94355.72;;;12.97;74.32
30682;BME280;17439;48.092;11.842;2023-03-31T09:48:29;94340.84;;;13.10;73.01
30682;BME280;17439;48.092;11.842;2023-03-31T09:51:02;94336.06;;;13.23;74.89
30682;BME280;17439;48.092;11.842;2023-03-31T09:53:47;94325.53;;;13.37;72.81
30682;BME280;17439;48.092;11.842;2023-03-31T09:56:43;94319.25;;;13.53;71.96
30682;BME280;17439;48.092;11.842;2023-03-31T09:59:18;94315.34;;;13.70;72.65
30682;BME280;17439;48.092;11.842;2023-03-31T10:01:48;94325.28;;;13.82;73.25
30682;BME280;17439;48.092;11.842;2023-03-31T10:04:21;94315.38;;;13.93;70.39
30682;BME280;17439;48.092;11.842;2023-03-31T10:06:49;94317.53;;;14.03;72.26
30682;BME280;17439;48.092;11.842;2023-03-31T10:09:18;94325.19;;;14.17;72.77
30682;BME280;17439;48.092;11.842;2023-03-31T10:12:08;94319.88;;;14.24;70.70
30682;BME280;17439;48.092;11.842;2023-03-31T10:14:52;94319.56;;;14.29;68.55
30682;BME280;17439;48.092;11.842;2023-03-31T10:17:22;94311.53;;;14.37;71.27
30682;BME280;17439;48.092;11.842;2023-03-31T10:19:53;94321.00;;;14.43;70.10
30682;BME280;17439;48.092;11.842;2023-03-31T10:24:50;94293.88;;;14.54;70.94
30682;BME280;17439;48.092;11.842;2023-03-31T10:27:25;94276.75;;;14.53;68.22
30682;BME280;17439;48.092;11.842;2023-03-31T10:30:00;94278.34;;;14.54;65.75
30682;BME280;17439;48.092;11.842;2023-03-31T10:32:29;94284.69;;;14.62;69.88
30682;BME280;17439;48.092;11.842;2023-03-31T10:35:05;94268.63;;;14.57;65.81
30682;BME280;17439;48.092;11.842;2023-03-31T10:37:34;94265.69;;;14.65;69.81
30682;BME280;17439;48.092;11.842;2023-03-31T10:40:23;94258.28;;;14.66;66.19
30682;BME280;17439;48.092;11.842;2023-03-31T10:43:16;94259.13;;;14.70;68.33
30682;BME280;17439;48.092;11.842;2023-03-31T10:45:48;94244.41;;;14.75;69.10
30682;BME280;17439;48.092;11.842;2023-03-31T10:48:29;94242.81;;;14.74;67.33
30682;BME280;17439;48.092;11.842;2023-03-31T10:51:17;94236.59;;;14.73;64.91
30682;BME280;17439;48.092;11.842;2023-03-31T10:53:47;94230.00;;;14.78;68.69
30682;BME280;17439;48.092;11.842;2023-03-31T10:56:42;94235.09;;;14.79;65.11
30682;BME280;17439;48.092;11.842;2023-03-31T11:11:21;94206.41;;;14.89;64.57
30682;BME280;17439;48.092;11.842;2023-03-31T11:14:05;94187.41;;;14.96;65.15
30682;BME280;17439;48.092;11.842;2023-03-31T11:19:38;94190.59;;;15.02;64.38
30682;BME280;17439;48.092;11.842;2023-03-31T11:22:43;94192.16;;;15.03;60.38
30682;BME280;17439;48.092;11.842;2023-03-31T11:25:21;94194.16;;;15.06;61.44
30682;BME280;17439;48.092;11.842;2023-03-31T11:28:24;94207.38;;;15.04;61.56
30682;BME280;17439;48.092;11.842;2023-03-31T11:31:25;94198.34;;;15.00;60.90
30682;BME280;17439;48.092;11.842;2023-03-31T11:39:25;94265.78;;;14.73;63.79
30682;BME280;17439;48.092;11.842;2023-03-31T11:41:58;94350.44;;;14.57;63.16
30682;BME280;17439;48.092;11.842;2023-03-31T11:44:29;94326.38;;;14.39;62.02
30682;BME280;17439;48.092;11.842;2023-03-31T11:47:08;94349.06;;;14.04;63.29
30682;BME280;17439;48.092;11.842;2023-03-31T11:49:40;94300.91;;;13.69;62.79
30682;BME280;17439;48.092;11.842;2023-03-31T11:52:15;94251.53;;;13.32;64.70
30682;BME280;17439;48.092;11.842;2023-03-31T11:54:56;94219.09;;;12.87;67.06
30682;BME280;17439;48.092;11.842;2023-03-31T12:00:18;94209.38;;;12.35;70.76
30682;BME280;17439;48.092;11.842;2023-03-31T12:02:53;94210.22;;;12.23;71.95
30682;BME280;17439;48.092;11.842;2023-03-31T12:05:25;94204.44;;;12.09;72.99
30682;BME280;17439;48.092;11.842;2023-03-31T12:08:04;94188.63;;;12.11;73.98
30682;BME280;17439;48.092;11.842;2023-03-31T12:10:35;94169.06;;;12.05;75.21
30682;BME280;17439;48.092;11.842;2023-03-31T12:16:09;94155.03;;;12.19;74.44
30682;BME280;17439;48.092;11.842;2023-03-31T12:21:28;94155.00;;;12.35;76.63
30682;BME280;17439;48.092;11.842;2023-03-31T12:23:56;94137.00;;;12.46;76.13
30682;BME280;17439;48.092;11.842;2023-03-31T12:29:29;94127.75;;;12.67;72.44
30682;BME280;17439;48.092;11.842;2023-03-31T12:32:03;94112.44;;;12.78;74.10
30682;BME280;17439;48.092;11.842;2023-03-31T12:34:31;94117.25;;;12.85;74.72
30682;BME280;17439;48.092;11.842;2023-03-31T12:37:15;94120.53;;;12.94;72.73
30682;BME280;17439;48.092;11.842;2023-03-31T12:45:16;94113.22;;;13.18;75.18
30682;BME280;17439;48.092;11.842;2023-03-31T12:47:58;94130.41;;;13.22;70.28
30682;BME280;17439;48.092;11.842;2023-03-31T12:55:54;94124.97;;;13.41;71.50
30682;BME280;17439;48.092;11.842;2023-03-31T13:03:35;94137.56;;;13.50;71.74
30682;BME280;17439;48.092;11.842;2023-03-31T13:06:04;94123.94;;;13.50;70.72
30682;BME280;17439;48.092;11.842;2023-03-31T13:08:51;94112.28;;;13.49;69.45
30682;BME280;17439;48.092;11.842;2023-03-31T13:11:20;94131.75;;;13.51;70.28
30682;BME280;17439;48.092;11.842;2023-03-31T13:13:59;94117.00;;;13.52;68.90
30682;BME280;17439;48.092;11.842;2023-03-31T13:16:28;94110.59;;;13.64;69.93
30682;BME280;17439;48.092;11.842;2023-03-31T13:18:55;94117.72;;;13.72;68.21
30682;BME280;17439;48.092;11.842;2023-03-31T13:21:23;94128.75;;;13.79;62.95
30682;BME280;17439;48.092;11.842;2023-03-31T13:23:51;94174.50;;;13.93;63.01
30682;BME280;17439;48.092;11.842;2023-03-31T13:34:36;94077.69;;;13.73;56.28
30682;BME280;17439;48.092;11.842;2023-03-31T13:37:28;94059.47;;;13.54;56.01
30682;BME280;17439;48.092;11.842;2023-03-31T13:42:56;94068.38;;;13.31;58.08
30682;BME280;17439;48.092;11.842;2023-03-31T13:59:39;94089.19;;;13.00;61.48
30682;BME280;17439;48.092;11.842;2023-03-31T14:05:44;94089.47;;;13.15;62.00
30682;BME280;17439;48.092;11.842;2023-03-31T14:10:51;94104.03;;;13.26;62.01
30682;BME280;17439;48.092;11.842;2023-03-31T14:13:23;94094.03;;;13.30;61.32
30682;BME280;17439;48.092;11.842;2023-03-31T14:15:53;94092.44;;;13.29;60.69
30682;BME280;17439;48.092;11.842;2023-03-31T14:18:25;94083.91;;;13.31;60.92
30682;BME280;17439;48.092;11.842;2023-03-31T14:21:10;94080.69;;;13.25;56.81
30682;BME280;17439;48.092;11.842;2023-03-31T14:23:48;94096.59;;;13.23;57.19
30682;BME280;17439;48.092;11.842;2023-03-31T14:29:08;94080.06;;;13.12;57.17
30682;BME280;17439;48.092;11.842;2023-03-31T14:34:32;94084.25;;;13.06;56.36
30682;BME280;17439;48.092;11.842;2023-03-31T14:37:05;94092.06;;;13.07;60.53
30682;BME280;17439;48.092;11.842;2023-03-31T14:39:36;94103.78;;;13.12;61.41
30682;BME280;17439;48.092;11.842;2023-03-31T14:42:12;94100.22;;;13.07;58.44
30682;BME280;17439;48.092;11.842;2023-03-31T14:44:40;94110.00;;;13.12;62.34
30682;BME280;17439;48.092;11.842;2023-03-31T14:47:22;94105.72;;;13.11;59.19
30682;BME280;17439;48.092;11.842;2023-03-31T14:52:31;94111.09;;;13.07;61.84
30682;BME280;17439;48.092;11.842;2023-03-31T14:54:59;94160.44;;;13.06;62.43
30682;BME280;17439;48.092;11.842;2023-03-31T14:57:37;94204.44;;;13.12;58.53
30682;BME280;17439;48.092;11.842;2023-03-31T15:00:06;94174.44;;;13.08;56.02
30682;BME280;17439;48.092;11.842;2023-03-31T15:02:36;94176.66;;;13.02;54.53
30682;BME280;17439;48.092;11.842;2023-03-31T15:05:06;94136.50;;;12.96;54.13
30682;BME280;17439;48.092;11.842;2023-03-31T15:07:35;94143.72;;;12.88;55.14
30682;BME280;17439;48.092;11.842;2023-03-31T15:10:03;94111.31;;;12.79;54.29
30682;BME280;17439;48.092;11.842;2023-03-31T15:12:31;94100.91;;;12.65;55.27
30682;BME280;17439;48.092;11.842;2023-03-31T15:15:02;94071.78;;;12.46;51.24
30682;BME280;17439;48.092;11.842;2023-03-31T15:17:35;94050.69;;;12.40;53.68
30682;BME280;17439;48.092;11.842;2023-03-31T15:20:27;94050.63;;;12.56;52.77
30682;BME280;17439;48.092;11.842;2023-03-31T15:22:55;94073.72;;;12.85;54.99